BKT95 EGCC-LEAL
Flight info
| Callsign | BKT95 |
|---|---|
| Flight time | 2h 44m |
| Altitude | 37000 |
| Route | LISTO P18 TELBA L151 KIDLI UN859 SOPIL DCT BALAN DCT LMG DCT PIMQO DCT AGN DCT ANETO DCT POSSY DCT XIMPE DCT RIMES N860 VLC |
| Aircraft | L101/H-SDFGHIRWXY/S |
Departure
| Time | 2026-05-04 10:49 |
|---|---|
| Airport | Manchester Airport (EGCC) |
Arrival
| Time | 2026-05-04 13:34 |
|---|---|
| Airport | Alicante-Elche Miguel Hernández Airport (LEAL) |
| Time | Latitude | Longitude | Altitude | Speed | Heading |
|---|---|---|---|---|---|
| 2026-05-04 10:11 | 53.35889 | -2.27026 | 252 ft | 0 kts | 316° |
| 2026-05-04 10:36 | 53.35883 | -2.27016 | 252 ft | 4 kts | 315° |
| 2026-05-04 10:36 | 53.35866 | -2.26982 | 255 ft | 5 kts | 297° |
| 2026-05-04 10:36 | 53.35858 | -2.26941 | 258 ft | 6 kts | 264° |
| 2026-05-04 10:36 | 53.35864 | -2.26912 | 258 ft | 2 kts | 235° |
| 2026-05-04 10:40 | 53.35860 | -2.26921 | 259 ft | 3 kts | 235° |
| 2026-05-04 10:40 | 53.35839 | -2.26973 | 258 ft | 7 kts | 237° |
| 2026-05-04 10:41 | 53.35805 | -2.27072 | 257 ft | 12 kts | 235° |
| 2026-05-04 10:41 | 53.35760 | -2.27168 | 257 ft | 0 kts | 230° |
| 2026-05-04 10:41 | 53.35748 | -2.27191 | 257 ft | 5 kts | 230° |
| 2026-05-04 10:41 | 53.35719 | -2.27248 | 258 ft | 8 kts | 230° |
| 2026-05-04 10:42 | 53.35675 | -2.27335 | 258 ft | 10 kts | 230° |
| 2026-05-04 10:42 | 53.35634 | -2.27421 | 258 ft | 11 kts | 231° |
| 2026-05-04 10:42 | 53.35577 | -2.27541 | 255 ft | 17 kts | 231° |
| 2026-05-04 10:42 | 53.35503 | -2.27694 | 253 ft | 14 kts | 230° |
| 2026-05-04 10:43 | 53.35463 | -2.27806 | 253 ft | 11 kts | 259° |
| 2026-05-04 10:44 | 53.34977 | -2.28813 | 236 ft | 18 kts | 223° |
| 2026-05-04 10:45 | 53.34926 | -2.28895 | 235 ft | 9 kts | 224° |
| 2026-05-04 10:45 | 53.34863 | -2.29004 | 227 ft | 13 kts | 227° |
| 2026-05-04 10:45 | 53.34799 | -2.29125 | 220 ft | 13 kts | 230° |
| 2026-05-04 10:45 | 53.34748 | -2.29232 | 225 ft | 7 kts | 232° |
| 2026-05-04 10:46 | 53.34710 | -2.29297 | 221 ft | 3 kts | 218° |
| 2026-05-04 10:46 | 53.34686 | -2.29321 | 218 ft | 6 kts | 206° |
| 2026-05-04 10:46 | 53.34639 | -2.29338 | 213 ft | 8 kts | 183° |
| 2026-05-04 10:46 | 53.34578 | -2.29321 | 214 ft | 10 kts | 158° |
| 2026-05-04 10:47 | 53.34545 | -2.29226 | 214 ft | 10 kts | 72° |
| 2026-05-04 10:47 | 53.34594 | -2.29111 | 216 ft | 14 kts | 51° |
| 2026-05-04 10:47 | 53.34680 | -2.28933 | 223 ft | 37 kts | 51° |
| 2026-05-04 10:47 | 53.35027 | -2.28218 | 241 ft | 124 kts | 51° |
| 2026-05-04 10:49 | 53.31125 | -2.18430 | 4145 ft | 279 kts | 178° |
| 2026-05-04 10:49 | 53.29212 | -2.18396 | 5515 ft | 270 kts | 180° |
| 2026-05-04 10:50 | 53.27333 | -2.18480 | 6722 ft | 273 kts | 182° |
| 2026-05-04 10:51 | 53.12076 | -2.20347 | 10906 ft | 386 kts | 186° |
| 2026-05-04 10:52 | 53.09379 | -2.20766 | 11642 ft | 390 kts | 186° |
| 2026-05-04 10:52 | 53.06717 | -2.21172 | 12878 ft | 379 kts | 186° |
| 2026-05-04 10:52 | 53.04084 | -2.21567 | 13696 ft | 385 kts | 186° |
| 2026-05-04 10:54 | 52.84644 | -2.25008 | 19069 ft | 416 kts | 193° |
| 2026-05-04 10:54 | 52.81821 | -2.26125 | 19913 ft | 420 kts | 194° |
| 2026-05-04 10:56 | 52.62901 | -2.25726 | 23091 ft | 406 kts | 153° |
| 2026-05-04 10:56 | 52.60379 | -2.23605 | 23498 ft | 409 kts | 155° |
| 2026-05-04 10:56 | 52.57833 | -2.21496 | 23874 ft | 411 kts | 153° |
| 2026-05-04 10:57 | 52.55321 | -2.19209 | 24251 ft | 414 kts | 150° |
| 2026-05-04 10:57 | 52.52857 | -2.16715 | 24628 ft | 417 kts | 148° |
| 2026-05-04 10:57 | 52.50425 | -2.14117 | 24991 ft | 419 kts | 148° |
| 2026-05-04 10:57 | 52.47988 | -2.11492 | 25366 ft | 421 kts | 148° |
| 2026-05-04 10:58 | 52.45533 | -2.08859 | 25749 ft | 423 kts | 148° |
| 2026-05-04 10:58 | 52.43065 | -2.06208 | 26074 ft | 426 kts | 147° |
| 2026-05-04 10:58 | 52.40655 | -2.03473 | 26360 ft | 427 kts | 146° |
| 2026-05-04 10:58 | 52.38191 | -2.00743 | 26660 ft | 429 kts | 148° |
| 2026-05-04 10:59 | 52.35692 | -1.98103 | 26965 ft | 430 kts | 149° |
| 2026-05-04 10:59 | 52.33159 | -1.95473 | 27264 ft | 432 kts | 149° |
| 2026-05-04 10:59 | 52.30615 | -1.92810 | 27563 ft | 434 kts | 148° |
| 2026-05-04 10:59 | 52.28091 | -1.90121 | 27826 ft | 436 kts | 148° |
| 2026-05-04 11:00 | 52.25547 | -1.87385 | 28073 ft | 437 kts | 148° |
| 2026-05-04 11:01 | 52.07562 | -1.68175 | 29821 ft | 448 kts | 148° |
| 2026-05-04 11:02 | 52.04951 | -1.65406 | 30072 ft | 450 kts | 148° |
| 2026-05-04 11:02 | 52.02327 | -1.62624 | 30322 ft | 451 kts | 148° |
| 2026-05-04 11:05 | 51.63053 | -1.29147 | 33175 ft | 466 kts | 163° |
| 2026-05-04 11:06 | 51.59995 | -1.27550 | 33339 ft | 469 kts | 163° |
| 2026-05-04 11:06 | 51.56873 | -1.25939 | 33699 ft | 473 kts | 163° |
| 2026-05-04 11:06 | 51.53787 | -1.24357 | 34794 ft | 459 kts | 163° |
| 2026-05-04 11:06 | 51.50765 | -1.22833 | 35651 ft | 453 kts | 164° |
| 2026-05-04 11:08 | 51.30110 | -1.07982 | 37011 ft | 465 kts | 156° |
| 2026-05-04 11:10 | 51.09700 | -0.93080 | 37016 ft | 460 kts | 157° |
| 2026-05-04 11:12 | 50.86499 | -0.76170 | 37013 ft | 460 kts | 152° |
| 2026-05-04 11:12 | 50.81103 | -0.70832 | 37018 ft | 461 kts | 149° |
| 2026-05-04 11:13 | 50.75680 | -0.65445 | 37017 ft | 460 kts | 150° |
| 2026-05-04 11:13 | 50.70256 | -0.60054 | 37016 ft | 460 kts | 149° |
| 2026-05-04 11:14 | 50.64865 | -0.54604 | 37016 ft | 460 kts | 149° |
| 2026-05-04 11:16 | 50.43349 | -0.32946 | 37017 ft | 460 kts | 149° |
| 2026-05-04 11:16 | 50.37956 | -0.27547 | 37013 ft | 460 kts | 149° |
| 2026-05-04 11:17 | 50.32565 | -0.22166 | 37018 ft | 459 kts | 149° |
| 2026-05-04 11:19 | 50.10867 | -0.01239 | 36994 ft | 455 kts | 162° |
| 2026-05-04 11:19 | 50.04781 | 0.01340 | 37042 ft | 455 kts | 167° |
| 2026-05-04 11:20 | 49.98729 | 0.04118 | 37017 ft | 452 kts | 166° |
| 2026-05-04 11:20 | 49.92671 | 0.06698 | 37017 ft | 450 kts | 168° |
| 2026-05-04 11:22 | 49.68509 | 0.16197 | 37014 ft | 450 kts | 168° |
| 2026-05-04 11:23 | 49.62429 | 0.18619 | 37019 ft | 449 kts | 168° |
| 2026-05-04 11:25 | 49.41264 | 0.27133 | 37002 ft | 448 kts | 168° |
| 2026-05-04 11:25 | 49.35241 | 0.29544 | 36998 ft | 447 kts | 168° |
| 2026-05-04 11:27 | 49.08315 | 0.40777 | 36990 ft | 445 kts | 167° |
| 2026-05-04 11:28 | 49.02386 | 0.43261 | 36989 ft | 445 kts | 167° |
| 2026-05-04 11:28 | 48.96429 | 0.45750 | 36990 ft | 444 kts | 167° |
| 2026-05-04 11:29 | 48.90470 | 0.48234 | 36990 ft | 443 kts | 167° |
| 2026-05-04 11:29 | 48.84516 | 0.50708 | 36990 ft | 443 kts | 167° |
| 2026-05-04 11:33 | 48.43023 | 0.67596 | 36977 ft | 441 kts | 166° |
| 2026-05-04 11:33 | 48.37155 | 0.70004 | 36982 ft | 441 kts | 166° |
| 2026-05-04 11:34 | 48.31184 | 0.72454 | 36978 ft | 441 kts | 166° |
| 2026-05-04 11:34 | 48.25294 | 0.74763 | 36976 ft | 440 kts | 167° |
| 2026-05-04 11:35 | 48.19369 | 0.77113 | 36969 ft | 441 kts | 166° |
| 2026-05-04 11:35 | 48.13451 | 0.79492 | 36969 ft | 440 kts | 166° |
| 2026-05-04 11:36 | 48.07521 | 0.81822 | 36971 ft | 440 kts | 166° |
| 2026-05-04 11:36 | 48.01602 | 0.84140 | 36974 ft | 440 kts | 166° |
| 2026-05-04 11:37 | 47.95727 | 0.86443 | 36970 ft | 439 kts | 166° |
| 2026-05-04 11:37 | 47.89826 | 0.88748 | 36971 ft | 438 kts | 167° |
| 2026-05-04 11:38 | 47.83935 | 0.91060 | 36962 ft | 438 kts | 166° |
| 2026-05-04 11:38 | 47.78059 | 0.93410 | 36961 ft | 437 kts | 167° |
| 2026-05-04 11:39 | 47.72192 | 0.95596 | 36962 ft | 437 kts | 167° |
| 2026-05-04 11:41 | 47.51596 | 1.03502 | 36953 ft | 437 kts | 167° |
| 2026-05-04 11:41 | 47.45706 | 1.05714 | 36943 ft | 435 kts | 171° |
| 2026-05-04 11:42 | 47.39745 | 1.06292 | 36962 ft | 432 kts | 181° |
| 2026-05-04 11:42 | 47.33733 | 1.06307 | 36948 ft | 432 kts | 180° |
| 2026-05-04 11:43 | 47.27723 | 1.06344 | 36952 ft | 432 kts | 181° |
| 2026-05-04 11:43 | 47.21718 | 1.06249 | 36952 ft | 432 kts | 181° |
| 2026-05-04 11:44 | 47.15753 | 1.06119 | 36958 ft | 431 kts | 181° |
| 2026-05-04 11:44 | 47.09750 | 1.05985 | 36952 ft | 432 kts | 181° |
| 2026-05-04 11:45 | 47.03751 | 1.05850 | 36953 ft | 432 kts | 181° |
| 2026-05-04 11:45 | 46.97738 | 1.05711 | 36961 ft | 431 kts | 182° |
| 2026-05-04 11:46 | 46.91783 | 1.05394 | 36960 ft | 431 kts | 182° |
| 2026-05-04 11:46 | 46.85783 | 1.05107 | 36962 ft | 431 kts | 182° |
| 2026-05-04 11:47 | 46.79781 | 1.04854 | 36963 ft | 431 kts | 182° |
| 2026-05-04 11:47 | 46.73781 | 1.04596 | 36962 ft | 431 kts | 182° |
| 2026-05-04 11:48 | 46.67778 | 1.04337 | 36960 ft | 432 kts | 182° |
| 2026-05-04 11:48 | 46.61802 | 1.04083 | 36961 ft | 432 kts | 182° |
| 2026-05-04 11:49 | 46.55803 | 1.03830 | 36961 ft | 432 kts | 182° |
| 2026-05-04 11:49 | 46.49794 | 1.03725 | 36962 ft | 432 kts | 180° |
| 2026-05-04 11:50 | 46.43825 | 1.03682 | 36961 ft | 432 kts | 181° |
| 2026-05-04 11:50 | 46.37818 | 1.03528 | 36960 ft | 432 kts | 181° |
| 2026-05-04 11:51 | 46.31806 | 1.03440 | 36962 ft | 432 kts | 181° |
| 2026-05-04 11:51 | 46.25797 | 1.03376 | 36964 ft | 432 kts | 181° |
| 2026-05-04 11:52 | 46.19818 | 1.03308 | 36963 ft | 432 kts | 181° |
| 2026-05-04 11:52 | 46.13807 | 1.03240 | 36963 ft | 432 kts | 181° |
| 2026-05-04 11:53 | 46.07794 | 1.03172 | 36962 ft | 432 kts | 181° |
| 2026-05-04 11:53 | 46.01780 | 1.03107 | 36967 ft | 432 kts | 181° |
| 2026-05-04 11:55 | 45.77850 | 1.04253 | 36967 ft | 435 kts | 171° |
| 2026-05-04 11:56 | 45.71882 | 1.05659 | 36962 ft | 435 kts | 173° |
| 2026-05-04 11:56 | 45.65900 | 1.07013 | 36963 ft | 435 kts | 172° |
| 2026-05-04 11:57 | 45.59974 | 1.08501 | 36963 ft | 435 kts | 172° |
| 2026-05-04 11:57 | 45.54010 | 1.10019 | 36954 ft | 435 kts | 172° |
| 2026-05-04 11:58 | 45.48049 | 1.11538 | 36953 ft | 435 kts | 172° |
| 2026-05-04 11:58 | 45.42087 | 1.13057 | 36952 ft | 436 kts | 172° |
| 2026-05-04 11:59 | 45.36115 | 1.14577 | 36949 ft | 436 kts | 172° |
| 2026-05-04 11:59 | 45.30192 | 1.16083 | 36944 ft | 435 kts | 172° |
| 2026-05-04 12:00 | 45.24242 | 1.17585 | 36941 ft | 435 kts | 172° |
| 2026-05-04 12:00 | 45.18267 | 1.18912 | 36909 ft | 433 kts | 181° |
| 2026-05-04 12:01 | 45.12347 | 1.17929 | 36970 ft | 429 kts | 190° |
| 2026-05-04 12:02 | 44.91760 | 1.13389 | 36940 ft | 428 kts | 191° |
| 2026-05-04 12:03 | 44.85900 | 1.11907 | 36943 ft | 428 kts | 191° |
| 2026-05-04 12:03 | 44.80042 | 1.10424 | 36944 ft | 427 kts | 191° |
| 2026-05-04 12:04 | 44.74225 | 1.08944 | 36944 ft | 427 kts | 192° |
| 2026-05-04 12:04 | 44.68378 | 1.07457 | 36944 ft | 427 kts | 192° |
| 2026-05-04 12:05 | 44.62531 | 1.05976 | 36944 ft | 427 kts | 192° |
| 2026-05-04 12:05 | 44.56688 | 1.04499 | 36941 ft | 427 kts | 192° |
| 2026-05-04 12:06 | 44.50890 | 1.03037 | 36939 ft | 426 kts | 192° |
| 2026-05-04 12:06 | 44.45051 | 1.01561 | 36945 ft | 426 kts | 192° |
| 2026-05-04 12:07 | 44.39217 | 1.00096 | 36944 ft | 426 kts | 192° |
| 2026-05-04 12:07 | 44.33393 | 0.98638 | 36941 ft | 425 kts | 192° |
| 2026-05-04 12:08 | 44.27561 | 0.97181 | 36942 ft | 425 kts | 192° |
| 2026-05-04 12:08 | 44.21774 | 0.95730 | 36946 ft | 425 kts | 192° |
| 2026-05-04 12:09 | 44.15949 | 0.94275 | 36943 ft | 426 kts | 192° |
| 2026-05-04 12:09 | 44.11095 | 0.93062 | 36943 ft | 426 kts | 192° |
| 2026-05-04 12:10 | 44.05262 | 0.91618 | 36942 ft | 426 kts | 192° |
| 2026-05-04 12:10 | 43.99428 | 0.90169 | 36943 ft | 426 kts | 192° |
| 2026-05-04 12:11 | 43.92663 | 0.88499 | 36944 ft | 424 kts | 192° |
| 2026-05-04 12:11 | 43.87841 | 0.87329 | 36945 ft | 423 kts | 192° |
| 2026-05-04 12:12 | 43.82062 | 0.85850 | 36943 ft | 422 kts | 193° |
| 2026-05-04 12:12 | 43.76304 | 0.84249 | 36943 ft | 422 kts | 193° |
| 2026-05-04 12:14 | 43.53300 | 0.78106 | 36953 ft | 422 kts | 193° |
| 2026-05-04 12:15 | 43.47552 | 0.76579 | 36953 ft | 422 kts | 193° |
| 2026-05-04 12:15 | 43.41791 | 0.75054 | 36952 ft | 421 kts | 193° |
| 2026-05-04 12:16 | 43.36116 | 0.73551 | 36960 ft | 421 kts | 193° |
| 2026-05-04 12:16 | 43.30312 | 0.72020 | 36962 ft | 421 kts | 193° |
| 2026-05-04 12:17 | 43.24563 | 0.70507 | 36964 ft | 421 kts | 193° |
| 2026-05-04 12:17 | 43.21754 | 0.69479 | 36922 ft | 417 kts | 205° |
| 2026-05-04 12:17 | 43.19269 | 0.67518 | 36951 ft | 410 kts | 214° |
| 2026-05-04 12:18 | 43.14172 | 0.63962 | 36981 ft | 414 kts | 201° |
| 2026-05-04 12:18 | 43.08667 | 0.61666 | 36973 ft | 417 kts | 197° |
| 2026-05-04 12:19 | 43.03063 | 0.59594 | 36981 ft | 417 kts | 197° |
| 2026-05-04 12:19 | 42.97465 | 0.57521 | 36980 ft | 417 kts | 197° |
| 2026-05-04 12:20 | 42.91867 | 0.55411 | 36983 ft | 417 kts | 198° |
| 2026-05-04 12:20 | 42.86288 | 0.53279 | 36982 ft | 416 kts | 198° |
| 2026-05-04 12:21 | 42.80765 | 0.51140 | 36981 ft | 416 kts | 198° |
| 2026-05-04 12:21 | 42.75200 | 0.48962 | 36979 ft | 415 kts | 198° |
| 2026-05-04 12:22 | 42.69658 | 0.46764 | 36983 ft | 416 kts | 198° |
| 2026-05-04 12:22 | 42.64106 | 0.44519 | 36971 ft | 415 kts | 199° |
| 2026-05-04 12:23 | 42.58626 | 0.42262 | 36972 ft | 415 kts | 199° |
| 2026-05-04 12:23 | 42.53111 | 0.39939 | 36976 ft | 414 kts | 199° |
| 2026-05-04 12:24 | 42.47631 | 0.37580 | 36972 ft | 413 kts | 200° |
| 2026-05-04 12:24 | 42.42176 | 0.35177 | 36972 ft | 412 kts | 200° |
| 2026-05-04 12:25 | 42.36750 | 0.32722 | 36972 ft | 412 kts | 201° |
| 2026-05-04 12:25 | 42.31376 | 0.30214 | 36971 ft | 411 kts | 201° |
| 2026-05-04 12:26 | 42.25994 | 0.27604 | 36979 ft | 410 kts | 202° |
| 2026-05-04 12:26 | 42.20652 | 0.24894 | 36971 ft | 410 kts | 203° |
| 2026-05-04 12:27 | 42.15358 | 0.22056 | 36970 ft | 409 kts | 204° |
| 2026-05-04 12:27 | 42.10141 | 0.19020 | 36972 ft | 408 kts | 206° |
| 2026-05-04 12:28 | 42.04967 | 0.16054 | 36929 ft | 411 kts | 194° |
| 2026-05-04 12:28 | 41.99260 | 0.15190 | 36968 ft | 416 kts | 189° |
| 2026-05-04 12:29 | 41.93523 | 0.14271 | 36961 ft | 416 kts | 191° |
| 2026-05-04 12:29 | 41.87795 | 0.13104 | 36962 ft | 415 kts | 193° |
| 2026-05-04 12:30 | 41.82161 | 0.11795 | 36962 ft | 414 kts | 193° |
| 2026-05-04 12:30 | 41.76468 | 0.10494 | 36961 ft | 415 kts | 193° |
| 2026-05-04 12:31 | 41.70770 | 0.09189 | 36963 ft | 415 kts | 193° |
| 2026-05-04 12:31 | 41.65085 | 0.07886 | 36959 ft | 415 kts | 193° |
| 2026-05-04 12:32 | 41.56585 | 0.05928 | 36961 ft | 415 kts | 193° |
| 2026-05-04 12:33 | 41.50891 | 0.04613 | 36963 ft | 415 kts | 193° |
| 2026-05-04 12:33 | 41.45215 | 0.03298 | 36960 ft | 414 kts | 193° |
| 2026-05-04 12:34 | 41.39566 | 0.01985 | 36962 ft | 415 kts | 193° |
| 2026-05-04 12:34 | 41.33890 | 0.00660 | 36960 ft | 415 kts | 193° |
| 2026-05-04 12:35 | 41.28201 | -0.00673 | 36955 ft | 416 kts | 193° |
| 2026-05-04 12:35 | 41.22472 | -0.02027 | 36963 ft | 421 kts | 193° |
| 2026-05-04 12:36 | 41.16723 | -0.03387 | 36960 ft | 422 kts | 193° |
| 2026-05-04 12:36 | 41.10911 | -0.04765 | 36967 ft | 422 kts | 193° |
| 2026-05-04 12:37 | 41.05133 | -0.06139 | 36968 ft | 422 kts | 193° |
| 2026-05-04 12:37 | 40.99379 | -0.07416 | 36969 ft | 422 kts | 192° |
| 2026-05-04 12:38 | 40.93574 | -0.08677 | 36971 ft | 422 kts | 192° |
| 2026-05-04 12:38 | 40.87785 | -0.09957 | 36967 ft | 422 kts | 192° |
| 2026-05-04 12:39 | 40.81994 | -0.11248 | 36661 ft | 423 kts | 192° |
| 2026-05-04 12:39 | 40.79123 | -0.11888 | 36152 ft | 413 kts | 192° |
| 2026-05-04 12:39 | 40.76304 | -0.12518 | 35659 ft | 408 kts | 192° |
| 2026-05-04 12:39 | 40.73556 | -0.13138 | 35181 ft | 407 kts | 192° |
| 2026-05-04 12:40 | 40.70749 | -0.13775 | 34693 ft | 409 kts | 192° |
| 2026-05-04 12:40 | 40.67949 | -0.14412 | 34214 ft | 409 kts | 193° |
| 2026-05-04 12:40 | 40.65256 | -0.15021 | 33732 ft | 408 kts | 192° |
| 2026-05-04 12:40 | 40.62346 | -0.15680 | 33227 ft | 408 kts | 193° |
| 2026-05-04 12:41 | 40.59557 | -0.16315 | 32748 ft | 408 kts | 193° |
| 2026-05-04 12:41 | 40.56748 | -0.16956 | 32256 ft | 409 kts | 193° |
| 2026-05-04 12:41 | 40.53941 | -0.17600 | 31773 ft | 409 kts | 193° |
| 2026-05-04 12:41 | 40.51195 | -0.18233 | 31283 ft | 410 kts | 192° |
| 2026-05-04 12:42 | 40.48366 | -0.18885 | 30796 ft | 411 kts | 193° |
| 2026-05-04 12:42 | 40.45557 | -0.19533 | 30304 ft | 412 kts | 193° |
| 2026-05-04 12:42 | 40.42718 | -0.20193 | 29800 ft | 412 kts | 193° |
| 2026-05-04 12:42 | 40.39891 | -0.20855 | 29313 ft | 413 kts | 193° |
| 2026-05-04 12:43 | 40.37055 | -0.21522 | 28818 ft | 415 kts | 193° |
| 2026-05-04 12:43 | 40.34206 | -0.22198 | 28323 ft | 417 kts | 193° |
| 2026-05-04 12:43 | 40.31333 | -0.22879 | 27830 ft | 420 kts | 193° |
| 2026-05-04 12:43 | 40.28471 | -0.23567 | 27324 ft | 422 kts | 193° |
| 2026-05-04 12:44 | 40.25611 | -0.24255 | 26823 ft | 423 kts | 193° |
| 2026-05-04 12:44 | 40.22716 | -0.24953 | 26312 ft | 425 kts | 193° |
| 2026-05-04 12:44 | 40.19801 | -0.25659 | 25823 ft | 427 kts | 193° |
| 2026-05-04 12:44 | 40.16861 | -0.26386 | 25295 ft | 429 kts | 193° |
| 2026-05-04 12:45 | 40.13920 | -0.27119 | 24787 ft | 431 kts | 193° |
| 2026-05-04 12:45 | 40.11048 | -0.27837 | 24267 ft | 407 kts | 193° |
| 2026-05-04 12:45 | 40.08360 | -0.28516 | 23814 ft | 382 kts | 193° |
| 2026-05-04 12:45 | 40.05773 | -0.29187 | 23371 ft | 378 kts | 193° |
| 2026-05-04 12:46 | 40.03205 | -0.29862 | 22925 ft | 376 kts | 193° |
| 2026-05-04 12:46 | 40.00689 | -0.30529 | 22482 ft | 374 kts | 193° |
| 2026-05-04 12:46 | 39.98142 | -0.31207 | 22037 ft | 371 kts | 194° |
| 2026-05-04 12:46 | 39.95621 | -0.31888 | 21600 ft | 370 kts | 195° |
| 2026-05-04 12:47 | 39.93122 | -0.32577 | 21149 ft | 367 kts | 195° |
| 2026-05-04 12:47 | 39.90620 | -0.33276 | 20721 ft | 365 kts | 195° |
| 2026-05-04 12:47 | 39.88147 | -0.33976 | 20287 ft | 363 kts | 195° |
| 2026-05-04 12:47 | 39.85681 | -0.34683 | 19855 ft | 362 kts | 195° |
| 2026-05-04 12:48 | 39.83299 | -0.35590 | 19379 ft | 355 kts | 207° |
| 2026-05-04 12:48 | 39.81264 | -0.37286 | 18938 ft | 349 kts | 220° |
| 2026-05-04 12:48 | 39.79515 | -0.39436 | 18545 ft | 347 kts | 225° |
| 2026-05-04 12:48 | 39.77869 | -0.41713 | 18137 ft | 344 kts | 226° |
| 2026-05-04 12:49 | 39.76262 | -0.44016 | 17729 ft | 342 kts | 227° |
| 2026-05-04 12:49 | 39.74552 | -0.46136 | 17267 ft | 341 kts | 213° |
| 2026-05-04 12:49 | 39.72336 | -0.47155 | 16816 ft | 345 kts | 189° |
| 2026-05-04 12:49 | 39.69902 | -0.47081 | 16421 ft | 354 kts | 178° |
| 2026-05-04 12:50 | 39.67441 | -0.46774 | 16005 ft | 356 kts | 180° |
| 2026-05-04 12:50 | 39.65019 | -0.46666 | 15580 ft | 353 kts | 183° |
| 2026-05-04 12:50 | 39.62526 | -0.46734 | 15161 ft | 352 kts | 185° |
| 2026-05-04 12:50 | 39.60122 | -0.46851 | 14749 ft | 350 kts | 185° |
| 2026-05-04 12:51 | 39.57697 | -0.46973 | 14331 ft | 348 kts | 185° |
| 2026-05-04 12:51 | 39.55281 | -0.47119 | 13912 ft | 348 kts | 185° |
| 2026-05-04 12:51 | 39.52867 | -0.47323 | 13498 ft | 346 kts | 187° |
| 2026-05-04 12:51 | 39.50462 | -0.47476 | 13080 ft | 347 kts | 180° |
| 2026-05-04 12:52 | 39.48079 | -0.47044 | 12656 ft | 349 kts | 169° |
| 2026-05-04 12:52 | 39.45726 | -0.46291 | 12250 ft | 349 kts | 169° |
| 2026-05-04 12:52 | 39.43332 | -0.45731 | 11837 ft | 347 kts | 174° |
| 2026-05-04 12:52 | 39.40935 | -0.45377 | 11427 ft | 345 kts | 175° |
| 2026-05-04 12:53 | 39.38592 | -0.45031 | 11017 ft | 345 kts | 174° |
| 2026-05-04 12:53 | 39.36225 | -0.44565 | 10606 ft | 344 kts | 172° |
| 2026-05-04 12:53 | 39.33865 | -0.43999 | 10195 ft | 343 kts | 170° |
| 2026-05-04 12:53 | 39.31538 | -0.43405 | 9786 ft | 340 kts | 170° |
| 2026-05-04 12:54 | 39.29289 | -0.42836 | 9400 ft | 319 kts | 170° |
| 2026-05-04 12:54 | 39.27166 | -0.42323 | 9037 ft | 300 kts | 170° |
| 2026-05-04 12:54 | 39.25164 | -0.41849 | 8682 ft | 285 kts | 170° |
| 2026-05-04 12:54 | 39.23238 | -0.41394 | 8354 ft | 281 kts | 170° |
| 2026-05-04 12:55 | 39.21355 | -0.40940 | 8135 ft | 279 kts | 169° |
| 2026-05-04 12:55 | 39.19446 | -0.40469 | 8040 ft | 279 kts | 169° |
| 2026-05-04 12:55 | 39.17543 | -0.39994 | 8020 ft | 279 kts | 169° |
| 2026-05-04 12:55 | 39.15635 | -0.39515 | 8002 ft | 279 kts | 169° |
| 2026-05-04 12:56 | 39.13737 | -0.39041 | 7999 ft | 279 kts | 169° |
| 2026-05-04 12:56 | 39.11824 | -0.38563 | 8007 ft | 279 kts | 169° |
| 2026-05-04 12:56 | 39.09984 | -0.38106 | 8009 ft | 280 kts | 169° |
| 2026-05-04 12:56 | 39.08009 | -0.37614 | 7975 ft | 279 kts | 169° |
| 2026-05-04 12:57 | 39.06111 | -0.37141 | 7985 ft | 280 kts | 169° |
| 2026-05-04 12:57 | 39.04222 | -0.36668 | 8005 ft | 280 kts | 169° |
| 2026-05-04 12:57 | 39.02302 | -0.36188 | 8007 ft | 280 kts | 169° |
| 2026-05-04 12:57 | 39.00401 | -0.35716 | 7976 ft | 279 kts | 169° |
| 2026-05-04 12:58 | 38.98483 | -0.35237 | 7994 ft | 279 kts | 169° |
| 2026-05-04 12:58 | 38.96573 | -0.34764 | 8013 ft | 280 kts | 169° |
| 2026-05-04 12:58 | 38.94662 | -0.34288 | 8006 ft | 280 kts | 169° |
| 2026-05-04 12:58 | 38.92751 | -0.33813 | 7981 ft | 280 kts | 169° |
| 2026-05-04 12:59 | 38.90847 | -0.33339 | 7989 ft | 280 kts | 169° |
| 2026-05-04 12:59 | 38.88965 | -0.32844 | 8004 ft | 280 kts | 167° |
| 2026-05-04 12:59 | 38.87061 | -0.32262 | 7827 ft | 282 kts | 167° |
| 2026-05-04 12:59 | 38.85157 | -0.31724 | 7579 ft | 277 kts | 169° |
| 2026-05-04 13:00 | 38.83265 | -0.31308 | 7680 ft | 275 kts | 171° |
| 2026-05-04 13:00 | 38.81336 | -0.30918 | 7881 ft | 278 kts | 171° |
| 2026-05-04 13:00 | 38.79420 | -0.30500 | 7955 ft | 279 kts | 170° |
| 2026-05-04 13:00 | 38.77510 | -0.30045 | 7953 ft | 279 kts | 169° |
| 2026-05-04 13:01 | 38.75600 | -0.29570 | 7985 ft | 279 kts | 169° |
| 2026-05-04 13:01 | 38.73695 | -0.29094 | 7994 ft | 280 kts | 169° |
| 2026-05-04 13:01 | 38.71813 | -0.28627 | 7988 ft | 280 kts | 169° |
| 2026-05-04 13:01 | 38.69891 | -0.28153 | 7989 ft | 279 kts | 169° |
| 2026-05-04 13:02 | 38.67990 | -0.27684 | 7992 ft | 279 kts | 169° |
| 2026-05-04 13:02 | 38.66071 | -0.27209 | 8010 ft | 279 kts | 169° |
| 2026-05-04 13:02 | 38.64162 | -0.26740 | 8005 ft | 280 kts | 169° |
| 2026-05-04 13:02 | 38.62245 | -0.26269 | 7974 ft | 280 kts | 169° |
| 2026-05-04 13:03 | 38.60334 | -0.25798 | 7976 ft | 280 kts | 169° |
| 2026-05-04 13:03 | 38.58414 | -0.25321 | 7742 ft | 281 kts | 169° |
| 2026-05-04 13:03 | 38.56508 | -0.24848 | 7402 ft | 273 kts | 169° |
| 2026-05-04 13:03 | 38.54710 | -0.24406 | 7062 ft | 263 kts | 169° |
| 2026-05-04 13:04 | 38.52939 | -0.23974 | 6754 ft | 254 kts | 169° |
| 2026-05-04 13:04 | 38.51236 | -0.23552 | 6443 ft | 245 kts | 169° |
| 2026-05-04 13:04 | 38.49591 | -0.23140 | 6174 ft | 238 kts | 169° |
| 2026-05-04 13:04 | 38.48017 | -0.22508 | 5885 ft | 241 kts | 149° |
| 2026-05-04 13:05 | 38.46587 | -0.21463 | 5563 ft | 238 kts | 162° |
| 2026-05-04 13:05 | 38.44987 | -0.20957 | 5361 ft | 237 kts | 163° |
| 2026-05-04 13:05 | 38.43455 | -0.20184 | 5103 ft | 238 kts | 153° |
| 2026-05-04 13:05 | 38.42000 | -0.19190 | 4831 ft | 238 kts | 153° |
| 2026-05-04 13:06 | 38.40515 | -0.18254 | 4535 ft | 237 kts | 154° |
| 2026-05-04 13:06 | 38.39044 | -0.17387 | 4251 ft | 236 kts | 157° |
| 2026-05-04 13:06 | 38.37489 | -0.16757 | 3964 ft | 234 kts | 169° |
| 2026-05-04 13:06 | 38.35890 | -0.16491 | 3692 ft | 232 kts | 174° |
| 2026-05-04 13:07 | 38.34273 | -0.16358 | 3417 ft | 230 kts | 176° |
| 2026-05-04 13:07 | 38.32691 | -0.16270 | 3159 ft | 228 kts | 177° |
| 2026-05-04 13:07 | 38.31103 | -0.16196 | 2887 ft | 227 kts | 177° |
| 2026-05-04 13:07 | 38.29532 | -0.16181 | 2619 ft | 225 kts | 187° |
| 2026-05-04 13:08 | 38.28096 | -0.16898 | 2456 ft | 222 kts | 212° |
| 2026-05-04 13:08 | 38.26918 | -0.18173 | 2490 ft | 227 kts | 224° |
| 2026-05-04 13:08 | 38.25983 | -0.19701 | 2467 ft | 210 kts | 235° |
| 2026-05-04 13:08 | 38.25400 | -0.21289 | 2480 ft | 193 kts | 247° |
| 2026-05-04 13:09 | 38.25089 | -0.22914 | 2591 ft | 186 kts | 254° |
| 2026-05-04 13:09 | 38.24945 | -0.24503 | 2672 ft | 176 kts | 259° |
| 2026-05-04 13:09 | 38.24904 | -0.26045 | 2503 ft | 174 kts | 263° |
| 2026-05-04 13:09 | 38.24926 | -0.27590 | 2381 ft | 173 kts | 265° |
| 2026-05-04 13:10 | 38.24987 | -0.29130 | 2393 ft | 175 kts | 266° |
| 2026-05-04 13:10 | 38.25082 | -0.30679 | 2466 ft | 177 kts | 267° |
| 2026-05-04 13:10 | 38.25200 | -0.32229 | 2497 ft | 176 kts | 268° |
| 2026-05-04 13:10 | 38.25340 | -0.33753 | 2493 ft | 176 kts | 269° |
| 2026-05-04 13:11 | 38.25499 | -0.35299 | 2493 ft | 177 kts | 270° |
| 2026-05-04 13:11 | 38.25672 | -0.36839 | 2500 ft | 176 kts | 270° |
| 2026-05-04 13:11 | 38.25850 | -0.38383 | 2495 ft | 175 kts | 270° |
| 2026-05-04 13:11 | 38.26033 | -0.39921 | 2344 ft | 177 kts | 271° |
| 2026-05-04 13:12 | 38.26221 | -0.41438 | 2083 ft | 175 kts | 271° |
| 2026-05-04 13:12 | 38.26407 | -0.42999 | 1813 ft | 177 kts | 271° |
| 2026-05-04 13:12 | 38.26584 | -0.44530 | 1653 ft | 169 kts | 272° |
| 2026-05-04 13:12 | 38.26824 | -0.45953 | 1416 ft | 166 kts | 273° |
| 2026-05-04 13:13 | 38.27083 | -0.47360 | 1172 ft | 159 kts | 273° |
| 2026-05-04 13:13 | 38.27274 | -0.48724 | 894 ft | 155 kts | 276° |
| 2026-05-04 13:13 | 38.27441 | -0.50094 | 722 ft | 160 kts | 277° |
| 2026-05-04 13:13 | 38.27622 | -0.51511 | 514 ft | 163 kts | 277° |
| 2026-05-04 13:14 | 38.27803 | -0.52924 | 361 ft | 160 kts | 281° |
| 2026-05-04 13:14 | 38.27988 | -0.54315 | 476 ft | 164 kts | 277° |
| 2026-05-04 13:14 | 38.28167 | -0.55772 | 1439 ft | 170 kts | 277° |
| 2026-05-04 13:14 | 38.28363 | -0.57288 | 2094 ft | 170 kts | 276° |
| 2026-05-04 13:15 | 38.28505 | -0.58710 | 2421 ft | 156 kts | 271° |
| 2026-05-04 13:15 | 38.28542 | -0.60096 | 2409 ft | 172 kts | 266° |
| 2026-05-04 13:15 | 38.28496 | -0.61739 | 2371 ft | 184 kts | 264° |
| 2026-05-04 13:15 | 38.28390 | -0.63335 | 2629 ft | 182 kts | 260° |
| 2026-05-04 13:16 | 38.28171 | -0.64983 | 2524 ft | 192 kts | 256° |
| 2026-05-04 13:16 | 38.27863 | -0.66564 | 2499 ft | 186 kts | 252° |
| 2026-05-04 13:16 | 38.27512 | -0.68153 | 2372 ft | 192 kts | 252° |
| 2026-05-04 13:16 | 38.27139 | -0.69710 | 2341 ft | 183 kts | 247° |
| 2026-05-04 13:17 | 38.26365 | -0.71001 | 1988 ft | 184 kts | 212° |
| 2026-05-04 13:17 | 38.25183 | -0.71481 | 1955 ft | 186 kts | 185° |
| 2026-05-04 13:17 | 38.23895 | -0.71124 | 1835 ft | 200 kts | 152° |
| 2026-05-04 13:17 | 38.22886 | -0.69870 | 1731 ft | 212 kts | 125° |
| 2026-05-04 13:18 | 38.22251 | -0.68159 | 1837 ft | 213 kts | 112° |
| 2026-05-04 13:18 | 38.21792 | -0.66392 | 2069 ft | 206 kts | 110° |
| 2026-05-04 13:18 | 38.21382 | -0.64736 | 2487 ft | 192 kts | 109° |
| 2026-05-04 13:18 | 38.20977 | -0.63071 | 2746 ft | 195 kts | 110° |
| 2026-05-04 13:19 | 38.20573 | -0.61417 | 3024 ft | 197 kts | 110° |
| 2026-05-04 13:19 | 38.20165 | -0.59769 | 3296 ft | 199 kts | 110° |
| 2026-05-04 13:19 | 38.19755 | -0.58118 | 3573 ft | 201 kts | 110° |
| 2026-05-04 13:19 | 38.19334 | -0.56417 | 3887 ft | 202 kts | 110° |
| 2026-05-04 13:20 | 38.18907 | -0.54687 | 4073 ft | 212 kts | 110° |
| 2026-05-04 13:20 | 38.18452 | -0.52861 | 4109 ft | 220 kts | 110° |
| 2026-05-04 13:20 | 38.17984 | -0.50993 | 4080 ft | 222 kts | 110° |
| 2026-05-04 13:20 | 38.17512 | -0.49130 | 3993 ft | 221 kts | 110° |
| 2026-05-04 13:21 | 38.17046 | -0.47277 | 3980 ft | 220 kts | 110° |
| 2026-05-04 13:21 | 38.16581 | -0.45432 | 3995 ft | 220 kts | 110° |
| 2026-05-04 13:21 | 38.16108 | -0.43579 | 4002 ft | 220 kts | 110° |
| 2026-05-04 13:21 | 38.15644 | -0.41753 | 3989 ft | 221 kts | 110° |
| 2026-05-04 13:22 | 38.15177 | -0.39902 | 3989 ft | 220 kts | 110° |
| 2026-05-04 13:22 | 38.14709 | -0.38045 | 4003 ft | 220 kts | 110° |
| 2026-05-04 13:22 | 38.14421 | -0.36143 | 3973 ft | 223 kts | 91° |
| 2026-05-04 13:22 | 38.14768 | -0.34225 | 3963 ft | 226 kts | 67° |
| 2026-05-04 13:23 | 38.15655 | -0.32581 | 3971 ft | 226 kts | 45° |
| 2026-05-04 13:23 | 38.16944 | -0.31447 | 4016 ft | 226 kts | 24° |
| 2026-05-04 13:23 | 38.18441 | -0.30933 | 4022 ft | 224 kts | 4° |
| 2026-05-04 13:23 | 38.19962 | -0.31084 | 3981 ft | 220 kts | 343° |
| 2026-05-04 13:24 | 38.21358 | -0.31897 | 3978 ft | 217 kts | 322° |
| 2026-05-04 13:24 | 38.22607 | -0.32921 | 3984 ft | 221 kts | 337° |
| 2026-05-04 13:24 | 38.24130 | -0.33031 | 3982 ft | 224 kts | 12° |
| 2026-05-04 13:25 | 38.26197 | -0.30300 | 3979 ft | 226 kts | 78° |
| 2026-05-04 13:25 | 38.26348 | -0.28322 | 3911 ft | 225 kts | 87° |
| 2026-05-04 13:25 | 38.26544 | -0.26340 | 3797 ft | 225 kts | 83° |
| 2026-05-04 13:25 | 38.26739 | -0.24369 | 3582 ft | 224 kts | 94° |
| 2026-05-04 13:26 | 38.26760 | -0.22432 | 3328 ft | 219 kts | 76° |
| 2026-05-04 13:26 | 38.27112 | -0.20656 | 3228 ft | 201 kts | 92° |
| 2026-05-04 13:26 | 38.26689 | -0.19033 | 3027 ft | 196 kts | 130° |
| 2026-05-04 13:26 | 38.25599 | -0.18097 | 2825 ft | 187 kts | 169° |
| 2026-05-04 13:27 | 38.24351 | -0.18277 | 2601 ft | 183 kts | 208° |
| 2026-05-04 13:27 | 38.23550 | -0.19439 | 2579 ft | 171 kts | 248° |
| 2026-05-04 13:27 | 38.23517 | -0.20909 | 2721 ft | 169 kts | 277° |
| 2026-05-04 13:27 | 38.24034 | -0.22271 | 2613 ft | 170 kts | 292° |
| 2026-05-04 13:28 | 38.24224 | -0.23718 | 2513 ft | 165 kts | 270° |
| 2026-05-04 13:28 | 38.24295 | -0.25181 | 2504 ft | 165 kts | 271° |
| 2026-05-04 13:28 | 38.24390 | -0.26632 | 2500 ft | 164 kts | 272° |
| 2026-05-04 13:28 | 38.24502 | -0.28057 | 2497 ft | 164 kts | 273° |
| 2026-05-04 13:29 | 38.24635 | -0.29510 | 2497 ft | 165 kts | 274° |
| 2026-05-04 13:29 | 38.24784 | -0.30950 | 2495 ft | 165 kts | 275° |
| 2026-05-04 13:29 | 38.24941 | -0.32395 | 2498 ft | 165 kts | 275° |
| 2026-05-04 13:29 | 38.25111 | -0.33851 | 2494 ft | 165 kts | 276° |
| 2026-05-04 13:30 | 38.25286 | -0.35294 | 2497 ft | 166 kts | 276° |
| 2026-05-04 13:30 | 38.25465 | -0.36710 | 2490 ft | 157 kts | 276° |
| 2026-05-04 13:30 | 38.25636 | -0.38050 | 2501 ft | 152 kts | 276° |
| 2026-05-04 13:30 | 38.25808 | -0.39379 | 2451 ft | 154 kts | 276° |
| 2026-05-04 13:31 | 38.25986 | -0.40709 | 2233 ft | 154 kts | 277° |
| 2026-05-04 13:31 | 38.26169 | -0.42040 | 2001 ft | 153 kts | 277° |
| 2026-05-04 13:31 | 38.26381 | -0.43366 | 1783 ft | 154 kts | 279° |
| 2026-05-04 13:31 | 38.26627 | -0.44698 | 1512 ft | 153 kts | 281° |
| 2026-05-04 13:32 | 38.26878 | -0.46021 | 1270 ft | 157 kts | 281° |
| 2026-05-04 13:32 | 38.27096 | -0.47420 | 1137 ft | 165 kts | 278° |
| 2026-05-04 13:32 | 38.27276 | -0.48861 | 947 ft | 167 kts | 276° |
| 2026-05-04 13:32 | 38.27443 | -0.50302 | 663 ft | 165 kts | 276° |
| 2026-05-04 13:33 | 38.27641 | -0.51753 | 459 ft | 164 kts | 278° |
| 2026-05-04 13:33 | 38.27836 | -0.53159 | 281 ft | 161 kts | 275° |
| 2026-05-04 13:33 | 38.28044 | -0.54513 | 86 ft | 149 kts | 276° |
| 2026-05-04 13:33 | 38.28188 | -0.55615 | 103 ft | 100 kts | 280° |
| 2026-05-04 13:34 | 38.28291 | -0.56354 | 120 ft | 76 kts | 279° |
| 2026-05-04 13:34 | 38.28371 | -0.56747 | 127 ft | 30 kts | 302° |
| 2026-05-04 13:34 | 38.28464 | -0.56899 | 137 ft | 12 kts | 310° |
| 2026-05-04 13:34 | 38.28523 | -0.56955 | 140 ft | 8 kts | 356° |
| 2026-05-04 13:35 | 38.28546 | -0.56897 | 137 ft | 12 kts | 89° |
| 2026-05-04 13:35 | 38.28517 | -0.56643 | 120 ft | 7 kts | 67° |
| 2026-05-04 13:35 | 38.28569 | -0.56609 | 123 ft | 10 kts | 12° |
| 2026-05-04 13:36 | 38.28623 | -0.56592 | 123 ft | 9 kts | 22° |
| 2026-05-04 13:36 | 38.28640 | -0.56500 | 119 ft | 15 kts | 98° |
| 2026-05-04 13:36 | 38.28624 | -0.56381 | 116 ft | 15 kts | 100° |
| 2026-05-04 13:36 | 38.28600 | -0.56217 | 105 ft | 20 kts | 100° |
| 2026-05-04 13:37 | 38.28583 | -0.56095 | 105 ft | 15 kts | 100° |
| 2026-05-04 13:37 | 38.28552 | -0.55959 | 103 ft | 16 kts | 104° |
| 2026-05-04 13:37 | 38.28534 | -0.55837 | 104 ft | 11 kts | 100° |
| 2026-05-04 13:37 | 38.28523 | -0.55763 | 101 ft | 14 kts | 99° |
| 2026-05-04 13:38 | 38.28493 | -0.55558 | 101 ft | 19 kts | 104° |
| 2026-05-04 13:38 | 38.28474 | -0.55441 | 99 ft | 10 kts | 100° |
| 2026-05-04 13:38 | 38.28468 | -0.55398 | 100 ft | 4 kts | 99° |
| 2026-05-04 13:38 | 38.28488 | -0.55364 | 95 ft | 8 kts | 28° |
| 2026-05-04 13:39 | 38.28509 | -0.55355 | 94 ft | 0 kts | 14° |
| 2026-05-04 13:39 | 38.28523 | -0.55351 | 95 ft | 1 kts | 10° |
| 2026-05-04 13:39 | 38.28532 | -0.55349 | 96 ft | 0 kts | 10° |
| 2026-05-04 13:39 | 38.28533 | -0.55349 | 93 ft | 0 kts | 10° |